Etusivu
METAR-TAF:

METAR-TAF

Lentoasemat :

Redstone Arsenal, Alabama, Yhdysvallat

Leveyspiiri: 34-40-43N, Pituuspiiri: 086-41-05W, korkeus merenpinnasta: 209 m

Tämänhetkinen sää

Tämä raportti tehtiin 2 tuntia ja 17 minuuttia sitten, kello 08.58 UTC
Tuuli 5 kn etelästä/kaakosta
Lämpötila 8°C
Kosteus 71%
Ilmanpaine 1016 hPa
Näkyvyys: 16.1 km
Pilvistä 4100 ft:n korkeudessa

METAR: KHUA 240858Z AUTO 16005KT 10SM OVC041 08/03 A3000 RMK AO2 RAB31E46 SLP161 P0000 60000 T00800027 57022

Aika: 05:15 (11:15 UTC)


TAF: puuttuu

Säähavainnot ja -ennusteet yli 4000 lentoasemalta (METAR- ja TAF-raportit).

Käytössä olevat sääasemat on merkitty karttaan keltaisilla ja punaisilla pisteillä.

Aseta hiiri pisteen päälle nähdäksesi sääaseman nimen.

Klikkaa sitten nähdäksesi säähavainnot ja -ennusteet.

Kartan vaihtaminen: klikkaa mustalla rastilla varustettuja vihreitä pisteitä, niin voit zoomata sisään; viivalla varustettua vihreää pistettä, niin voit zoomata ulos tai vihreitä nuolia, niin pääset viereisille kartoille.


METAR-TAF: